createdAt,value
2019-05-22T00:02:00.101Z,18.00
2019-05-22T00:04:31.277Z,17.73
2019-05-22T00:06:59.451Z,20.20
2019-05-22T00:09:28.788Z,21.77
2019-05-22T00:11:56.128Z,20.23
2019-05-22T00:14:25.106Z,20.02
2019-05-22T00:16:51.373Z,19.17
2019-05-22T00:19:19.516Z,20.37
2019-05-22T00:21:49.470Z,20.43
2019-05-22T00:24:16.132Z,19.30
2019-05-22T00:26:43.176Z,17.40
2019-05-22T00:29:09.960Z,18.48
2019-05-22T00:31:37.669Z,19.92
2019-05-22T00:34:04.425Z,21.73
2019-05-22T00:36:32.503Z,20.02
2019-05-22T00:39:00.051Z,18.02
2019-05-22T00:41:30.709Z,18.82
2019-05-22T00:43:57.651Z,16.30
2019-05-22T00:46:24.798Z,15.93
2019-05-22T00:48:51.652Z,16.15
2019-05-22T00:51:25.891Z,15.25
2019-05-22T00:53:59.868Z,16.00
2019-05-22T00:56:30.830Z,17.10
2019-05-22T00:58:59.110Z,15.60
2019-05-22T01:01:32.288Z,15.75
2019-05-22T01:03:59.095Z,16.50
2019-05-22T01:06:28.646Z,14.23
2019-05-22T01:08:56.024Z,15.95
2019-05-22T01:11:24.503Z,14.90
2019-05-22T01:13:51.139Z,15.60
2019-05-22T01:16:18.815Z,15.88
2019-05-22T01:18:46.265Z,15.45
2019-05-22T01:21:15.252Z,15.23
2019-05-22T01:23:42.872Z,18.05
2019-05-22T01:26:14.810Z,17.77
2019-05-22T01:28:42.348Z,18.25
2019-05-22T01:31:14.061Z,17.75
2019-05-22T01:33:48.106Z,17.70
2019-05-22T01:36:19.088Z,18.50
2019-05-22T01:38:47.647Z,20.50
2019-05-22T01:41:19.453Z,22.13
2019-05-22T01:43:48.522Z,22.22
2019-05-22T01:46:15.508Z,20.57
2019-05-22T01:48:44.537Z,19.10
2019-05-22T01:51:11.296Z,20.05
2019-05-22T01:53:40.338Z,19.82
2019-05-22T01:56:15.795Z,20.77
2019-05-22T01:58:43.209Z,21.73
2019-05-22T02:01:13.577Z,22.17
2019-05-22T02:03:40.122Z,22.87
2019-05-22T02:06:06.830Z,19.90
2019-05-22T02:08:41.105Z,21.17
2019-05-22T02:11:10.551Z,21.85
2019-05-22T02:13:42.519Z,21.85
2019-05-22T02:16:08.855Z,22.02
2019-05-22T02:18:38.235Z,22.07
2019-05-22T02:21:06.099Z,23.75
2019-05-22T02:23:33.296Z,22.87
2019-05-22T02:26:04.428Z,23.42
2019-05-22T02:28:32.778Z,23.02
2019-05-22T02:31:00.828Z,24.32
2019-05-22T02:33:29.100Z,22.40
2019-05-22T02:35:55.736Z,23.27
2019-05-22T02:38:22.723Z,25.32
2019-05-22T02:40:52.362Z,23.25
2019-05-22T02:43:18.846Z,25.48
2019-05-22T02:45:46.073Z,22.87
2019-05-22T02:48:14.451Z,22.80
2019-05-22T02:50:41.824Z,23.20
2019-05-22T02:53:11.662Z,23.67
2019-05-22T02:55:39.236Z,22.20
2019-05-22T02:58:05.895Z,24.60
2019-05-22T03:00:55.249Z,21.52
2019-05-22T03:03:22.785Z,23.35
2019-05-22T03:05:49.967Z,22.05
2019-05-22T03:08:16.303Z,22.98
2019-05-22T03:11:04.957Z,21.52
2019-05-22T03:13:55.138Z,24.52
2019-05-22T03:16:21.367Z,23.65
2019-05-22T03:18:48.017Z,26.55
2019-05-22T03:21:15.185Z,24.72
2019-05-22T03:23:41.578Z,26.25
2019-05-22T03:26:08.999Z,22.22
2019-05-22T03:28:36.078Z,22.67
2019-05-22T03:31:04.473Z,24.87
2019-05-22T03:33:31.130Z,22.70
2019-05-22T03:36:09.181Z,19.75
2019-05-22T03:38:38.163Z,22.07
2019-05-22T03:41:05.413Z,21.05
2019-05-22T03:43:34.814Z,22.52
2019-05-22T03:46:13.658Z,21.35
2019-05-22T03:48:40.301Z,21.82
2019-05-22T03:51:11.982Z,21.12
2019-05-22T03:53:39.018Z,20.23
2019-05-22T03:56:05.974Z,20.52
2019-05-22T03:58:32.813Z,19.10
2019-05-22T04:01:00.748Z,18.95
2019-05-22T04:03:26.986Z,19.77
2019-05-22T04:05:56.158Z,20.57
2019-05-22T04:08:23.398Z,22.80
2019-05-22T04:10:59.224Z,24.00
2019-05-22T04:13:26.828Z,22.60
2019-05-22T04:15:54.522Z,22.05
2019-05-22T04:18:23.292Z,19.32
2019-05-22T04:20:50.332Z,20.77
2019-05-22T04:23:16.770Z,20.37
2019-05-22T04:25:43.085Z,23.10
2019-05-22T04:28:09.724Z,22.42
2019-05-22T04:30:37.764Z,19.98
2019-05-22T04:33:04.218Z,24.18
2019-05-22T04:35:31.757Z,21.90
2019-05-22T04:37:58.912Z,21.37
2019-05-22T04:40:37.829Z,23.83
2019-05-22T04:43:06.209Z,27.00
2019-05-22T04:45:32.917Z,25.12
2019-05-22T04:48:03.122Z,27.05
2019-05-22T04:50:30.455Z,26.87
2019-05-22T04:52:57.162Z,26.87
2019-05-22T04:55:23.833Z,26.77
2019-05-22T04:57:50.651Z,28.85
2019-05-22T05:00:17.894Z,25.43
2019-05-22T05:02:44.189Z,27.25
2019-05-22T05:05:11.180Z,23.27
2019-05-22T05:07:38.626Z,24.15
2019-05-22T05:10:05.309Z,22.30
2019-05-22T05:12:31.598Z,22.58
2019-05-22T05:14:58.208Z,22.65
2019-05-22T05:17:24.572Z,21.40
2019-05-22T05:19:51.042Z,23.45
2019-05-22T05:22:24.179Z,26.70
2019-05-22T05:24:51.078Z,27.77
2019-05-22T05:27:17.710Z,26.12
2019-05-22T05:29:44.167Z,24.72
2019-05-22T05:32:11.249Z,24.55
2019-05-22T05:34:50.442Z,23.12
2019-05-22T05:37:18.815Z,21.90
2019-05-22T05:39:51.440Z,21.90
2019-05-22T05:42:17.796Z,23.50
2019-05-22T05:44:44.205Z,24.77
2019-05-22T05:47:10.505Z,24.90
2019-05-22T05:49:36.860Z,24.40
2019-05-22T05:52:03.319Z,22.02
2019-05-22T05:54:30.855Z,24.70
2019-05-22T05:57:17.564Z,22.45
2019-05-22T05:59:44.233Z,24.37
2019-05-22T06:02:11.775Z,21.27
2019-05-22T06:04:38.360Z,20.68
2019-05-22T06:07:17.750Z,21.57
2019-05-22T06:09:53.252Z,20.30
2019-05-22T06:12:20.199Z,23.45
2019-05-22T06:14:47.380Z,23.07
2019-05-22T06:17:25.497Z,21.27
2019-05-22T06:19:56.029Z,23.10
2019-05-22T06:22:22.369Z,20.12
2019-05-22T06:24:59.400Z,18.57
2019-05-22T06:27:30.648Z,20.50
2019-05-22T06:30:02.218Z,21.45
2019-05-22T06:32:54.826Z,19.35
2019-05-22T06:35:21.688Z,20.85
2019-05-22T06:38:00.911Z,18.70
2019-05-22T06:40:27.544Z,17.57
2019-05-22T06:43:24.203Z,17.27
2019-05-22T06:45:54.196Z,20.48
2019-05-22T06:48:20.873Z,20.23
2019-05-22T06:50:49.443Z,20.57
2019-05-22T06:53:16.062Z,20.20
2019-05-22T06:55:42.654Z,18.32
2019-05-22T06:58:09.747Z,18.00
2019-05-22T07:00:36.594Z,16.67
2019-05-22T07:03:03.607Z,19.07
2019-05-22T07:05:30.522Z,18.65
2019-05-22T07:07:59.377Z,17.90
2019-05-22T07:10:26.262Z,16.57
2019-05-22T07:12:52.870Z,17.37
2019-05-22T07:15:20.723Z,15.75
2019-05-22T07:17:48.572Z,16.37
2019-05-22T07:20:15.814Z,20.08
2019-05-22T07:22:42.605Z,18.90
2019-05-22T07:25:10.249Z,17.87
2019-05-22T07:27:37.908Z,16.95
2019-05-22T07:30:07.223Z,17.02
2019-05-22T07:32:33.963Z,18.05
2019-05-22T07:35:00.650Z,19.32
2019-05-22T07:37:29.479Z,17.82
2019-05-22T07:39:56.196Z,19.90
2019-05-22T07:42:22.561Z,18.73
2019-05-22T07:44:48.876Z,18.52
2019-05-22T07:47:19.589Z,17.62
2019-05-22T07:49:46.336Z,17.45
2019-05-22T07:52:13.576Z,15.28
2019-05-22T07:54:39.933Z,14.40
2019-05-22T07:57:09.320Z,13.95
2019-05-22T07:59:36.125Z,15.25
2019-05-22T08:02:06.050Z,13.48
2019-05-22T08:04:32.818Z,14.00
2019-05-22T08:06:59.952Z,15.05
2019-05-22T08:09:26.444Z,15.90
2019-05-22T08:11:53.159Z,16.85
2019-05-22T08:14:21.715Z,14.35
2019-05-22T08:16:48.615Z,14.83
2019-05-22T08:19:15.101Z,14.38
2019-05-22T08:21:41.368Z,14.25
2019-05-22T08:24:07.740Z,15.80
2019-05-22T08:26:51.627Z,14.47
2019-05-22T08:29:04.497Z,14.87
2019-05-22T08:31:31.559Z,13.75
2019-05-22T08:33:58.254Z,13.70
2019-05-22T08:36:25.136Z,13.90
2019-05-22T08:38:53.387Z,12.63
2019-05-22T08:41:23.539Z,11.73
2019-05-22T08:44:13.918Z,10.72
2019-05-22T08:46:18.859Z,11.00
2019-05-22T08:48:48.723Z,10.45
2019-05-22T08:51:15.380Z,10.30
2019-05-22T08:53:47.397Z,10.65
2019-05-22T08:56:11.181Z,11.60
2019-05-22T08:58:38.874Z,11.78
2019-05-22T09:01:06.968Z,11.30
2019-05-22T09:03:33.524Z,11.60
2019-05-22T09:06:00.014Z,11.48
2019-05-22T09:08:26.494Z,10.53
2019-05-22T09:10:52.854Z,11.43
2019-05-22T09:13:19.246Z,9.93
2019-05-22T09:15:47.669Z,10.80
2019-05-22T09:18:14.213Z,8.85
2019-05-22T09:20:49.399Z,9.45
2019-05-22T09:23:10.876Z,8.63
2019-05-22T09:25:37.861Z,9.25
2019-05-22T09:28:07.439Z,8.65
2019-05-22T09:30:34.031Z,7.67
2019-05-22T09:33:01.330Z,7.25
2019-05-22T09:35:28.348Z,7.33
2019-05-22T09:37:55.598Z,7.20
2019-05-22T09:40:22.045Z,7.47
2019-05-22T09:42:48.719Z,7.50
2019-05-22T09:45:17.191Z,7.75
2019-05-22T09:47:43.681Z,7.42
2019-05-22T09:50:12.581Z,6.25
2019-05-22T09:52:54.624Z,7.15
2019-05-22T09:55:08.995Z,6.47
2019-05-22T09:57:35.872Z,5.60
2019-05-22T10:00:10.464Z,6.00
2019-05-22T10:02:37.014Z,5.70
2019-05-22T10:05:05.609Z,5.55
2019-05-22T10:07:31.877Z,5.47
2019-05-22T10:09:58.340Z,5.47
2019-05-22T10:12:24.953Z,5.42
2019-05-22T10:14:52.490Z,5.70
2019-05-22T10:17:19.397Z,5.22
2019-05-22T10:19:46.265Z,5.20
2019-05-22T10:22:13.126Z,5.10
2019-05-22T10:24:40.238Z,5.80
2019-05-22T10:27:08.617Z,4.40
2019-05-22T10:29:35.633Z,4.60
2019-05-22T10:32:02.713Z,5.15
2019-05-22T10:34:29.457Z,4.90
2019-05-22T10:36:55.964Z,4.30
2019-05-22T10:39:24.710Z,4.60
2019-05-22T10:41:50.610Z,4.55
2019-05-22T10:44:17.265Z,4.62
2019-05-22T10:46:43.763Z,4.55
2019-05-22T10:49:10.218Z,4.62
2019-05-22T10:51:37.069Z,4.50
2019-05-22T10:54:04.200Z,4.28
2019-05-22T10:56:31.427Z,4.20
2019-05-22T10:59:01.432Z,4.17
2019-05-22T11:01:27.724Z,3.60
2019-05-22T11:03:54.594Z,4.15
2019-05-22T11:06:22.467Z,3.80
2019-05-22T11:08:48.849Z,4.58
2019-05-22T11:11:15.694Z,4.58
2019-05-22T11:13:59.317Z,4.28
2019-05-22T11:16:11.222Z,4.87
2019-05-22T11:18:38.177Z,4.12
2019-05-22T11:21:04.995Z,4.60
2019-05-22T11:23:31.579Z,3.80
2019-05-22T11:25:58.758Z,4.20
2019-05-22T11:28:26.213Z,4.50
2019-05-22T11:30:52.896Z,3.83
2019-05-22T11:33:19.577Z,4.45
2019-05-22T11:35:46.136Z,4.20
2019-05-22T11:38:13.437Z,4.50
2019-05-22T11:40:41.745Z,4.22
2019-05-22T11:43:09.721Z,4.00
2019-05-22T11:45:36.327Z,4.15
2019-05-22T11:48:03.746Z,3.60
2019-05-22T11:50:36.337Z,3.80
2019-05-22T11:53:03.565Z,3.58
2019-05-22T11:55:43.616Z,3.87
2019-05-22T11:57:59.423Z,3.45
2019-05-22T12:00:25.900Z,3.05
2019-05-22T12:02:53.701Z,3.50
2019-05-22T12:05:20.797Z,3.20
2019-05-22T12:07:47.566Z,2.70
2019-05-22T12:10:14.703Z,2.90
2019-05-22T12:12:41.075Z,2.60
2019-05-22T12:15:08.490Z,2.60
2019-05-22T12:17:38.433Z,3.33
2019-05-22T12:20:06.200Z,2.87
2019-05-22T12:22:33.696Z,3.25
2019-05-22T12:25:00.468Z,2.72
2019-05-22T12:27:27.218Z,2.80
2019-05-22T12:29:53.631Z,2.80
2019-05-22T12:32:21.425Z,2.83
2019-05-22T12:34:49.484Z,2.85
2019-05-22T12:37:16.374Z,2.80
2019-05-22T12:39:42.899Z,2.92
2019-05-22T12:42:11.882Z,2.80
2019-05-22T12:44:38.565Z,2.50
2019-05-22T12:47:07.193Z,2.20
2019-05-22T12:49:33.892Z,2.52
2019-05-22T12:52:01.754Z,2.80
2019-05-22T12:54:45.310Z,2.47
2019-05-22T12:56:57.245Z,2.37
2019-05-22T12:59:24.805Z,2.30
2019-05-22T13:01:52.485Z,2.40
2019-05-22T13:04:20.048Z,2.40
2019-05-22T13:06:46.773Z,2.50
2019-05-22T13:09:14.437Z,2.75
2019-05-22T13:11:41.146Z,2.60
2019-05-22T13:14:07.850Z,2.58
2019-05-22T13:16:34.658Z,2.85
2019-05-22T13:19:01.356Z,2.47
2019-05-22T13:21:29.666Z,2.62
2019-05-22T13:23:59.715Z,2.55
2019-05-22T13:26:26.282Z,2.62
2019-05-22T13:28:53.206Z,2.70
2019-05-22T13:31:20.121Z,2.62
2019-05-22T13:33:47.332Z,2.62
2019-05-22T13:36:16.592Z,2.80
2019-05-22T13:38:43.119Z,2.85
2019-05-22T13:41:10.094Z,2.80
2019-05-22T13:43:36.845Z,2.67
2019-05-22T13:46:03.793Z,2.95
2019-05-22T13:48:30.047Z,2.80
2019-05-22T13:50:57.606Z,2.70
2019-05-22T13:53:24.814Z,2.83
2019-05-22T13:55:52.534Z,2.80
2019-05-22T13:58:21.255Z,2.87
2019-05-22T14:00:49.141Z,2.65
2019-05-22T14:03:15.932Z,2.30
2019-05-22T14:05:44.316Z,2.33
2019-05-22T14:08:11.162Z,2.25
2019-05-22T14:10:38.244Z,2.50
2019-05-22T14:13:05.041Z,2.60
2019-05-22T14:15:47.831Z,2.12
2019-05-22T14:18:00.331Z,2.50
2019-05-22T14:20:26.863Z,2.55
2019-05-22T14:22:53.383Z,2.65
2019-05-22T14:25:21.603Z,2.33
2019-05-22T14:27:47.978Z,2.08
2019-05-22T14:30:36.023Z,2.20
2019-05-22T14:33:05.305Z,2.20
2019-05-22T14:35:47.543Z,2.30
2019-05-22T14:38:04.468Z,2.40
2019-05-22T14:40:31.425Z,2.40
2019-05-22T14:43:00.504Z,2.45
2019-05-22T14:45:27.137Z,2.22
2019-05-22T14:47:53.926Z,2.75
2019-05-22T14:50:23.015Z,2.67
2019-05-22T14:52:50.818Z,2.65
2019-05-22T14:55:17.278Z,2.80
2019-05-22T14:57:43.894Z,2.60
2019-05-22T15:00:13.427Z,2.35
2019-05-22T15:02:39.993Z,2.37
2019-05-22T15:05:08.013Z,2.70
2019-05-22T15:07:34.385Z,2.70
2019-05-22T15:10:00.842Z,2.65
2019-05-22T15:12:27.494Z,2.42
2019-05-22T15:14:54.333Z,2.70
2019-05-22T15:17:32.470Z,2.80
2019-05-22T15:19:51.005Z,1.95
2019-05-22T15:22:17.622Z,2.40
2019-05-22T15:24:44.637Z,2.50
2019-05-22T15:27:12.214Z,2.67
2019-05-22T15:29:39.000Z,2.20
2019-05-22T15:32:05.675Z,2.60
2019-05-22T15:34:34.015Z,2.47
2019-05-22T15:37:00.692Z,2.72
2019-05-22T15:39:29.249Z,2.40
2019-05-22T15:41:55.699Z,2.33
2019-05-22T15:44:22.786Z,2.47
2019-05-22T15:46:52.743Z,2.52
2019-05-22T15:49:20.486Z,2.70
2019-05-22T15:51:48.144Z,2.70
2019-05-22T15:54:17.197Z,2.70
2019-05-22T15:56:45.673Z,2.25
2019-05-22T15:59:12.251Z,2.67
2019-05-22T16:01:40.978Z,2.80
2019-05-22T16:04:10.318Z,2.60
2019-05-22T16:06:36.777Z,2.60
2019-05-22T16:09:07.469Z,2.70
2019-05-22T16:11:34.443Z,2.60
2019-05-22T16:14:02.921Z,2.50
2019-05-22T16:16:32.042Z,2.50
2019-05-22T16:19:02.813Z,2.60
2019-05-22T16:21:29.182Z,2.60
2019-05-22T16:23:56.935Z,3.10
2019-05-22T16:26:23.994Z,2.55
2019-05-22T16:28:50.450Z,2.60
2019-05-22T16:31:17.551Z,2.55
2019-05-22T16:33:45.568Z,2.40
2019-05-22T16:36:12.729Z,2.77
2019-05-22T16:38:41.106Z,2.42
2019-05-22T16:41:07.891Z,2.77
2019-05-22T16:43:47.962Z,2.70
2019-05-22T16:46:05.882Z,2.60
2019-05-22T16:48:32.159Z,2.50
2019-05-22T16:50:58.668Z,2.30
2019-05-22T16:53:25.717Z,2.77
2019-05-22T16:55:53.205Z,2.90
2019-05-22T16:58:20.971Z,2.60
2019-05-22T17:00:47.633Z,2.60
2019-05-22T17:03:15.361Z,2.40
2019-05-22T17:05:42.353Z,2.17
2019-05-22T17:08:08.799Z,2.70
2019-05-22T17:10:35.551Z,2.00
2019-05-22T17:13:04.075Z,2.40
2019-05-22T17:15:32.486Z,1.80
2019-05-22T17:17:59.082Z,2.02
2019-05-22T17:20:27.761Z,2.00
2019-05-22T17:22:55.053Z,2.40
2019-05-22T17:25:21.588Z,2.42
2019-05-22T17:27:49.048Z,2.08
2019-05-22T17:30:20.625Z,2.37
2019-05-22T17:32:46.635Z,1.90
2019-05-22T17:35:16.167Z,2.00
2019-05-22T17:37:43.791Z,1.98
2019-05-22T17:40:12.001Z,1.92
2019-05-22T17:42:38.770Z,2.42
2019-05-22T17:45:08.635Z,1.98
2019-05-22T17:47:35.336Z,2.30
2019-05-22T17:50:03.879Z,2.27
2019-05-22T17:52:30.268Z,2.00
2019-05-22T17:54:57.556Z,1.90
2019-05-22T17:57:24.707Z,2.12
2019-05-22T17:59:51.883Z,2.40
2019-05-22T18:02:20.182Z,2.12
2019-05-22T18:04:46.725Z,2.20
2019-05-22T18:07:13.291Z,2.00
2019-05-22T18:09:39.962Z,2.00
2019-05-22T18:12:07.024Z,1.85
2019-05-22T18:14:34.615Z,2.10
2019-05-22T18:17:00.994Z,1.87
2019-05-22T18:19:27.543Z,2.10
2019-05-22T18:21:53.841Z,2.30
2019-05-22T18:24:20.595Z,2.00
2019-05-22T18:26:47.140Z,2.40
2019-05-22T18:29:13.559Z,2.00
2019-05-22T18:31:40.344Z,1.80
2019-05-22T18:34:26.659Z,1.92
2019-05-22T18:36:53.186Z,1.82
2019-05-22T18:39:19.788Z,2.10
2019-05-22T18:41:46.311Z,1.57
2019-05-22T18:44:13.060Z,2.25
2019-05-22T18:46:39.325Z,2.00
2019-05-22T18:49:05.906Z,2.40
2019-05-22T18:51:32.740Z,2.25
2019-05-22T18:53:59.039Z,1.60
2019-05-22T18:56:25.686Z,2.08
2019-05-22T18:58:52.871Z,2.30
2019-05-22T19:01:19.561Z,2.30
2019-05-22T19:03:46.072Z,2.25
2019-05-22T19:06:12.295Z,2.58
2019-05-22T19:08:39.222Z,1.98
2019-05-22T19:11:05.660Z,2.00
2019-05-22T19:13:32.085Z,1.72
2019-05-22T19:15:58.549Z,2.08
2019-05-22T19:18:25.332Z,2.20
2019-05-22T19:20:51.899Z,2.33
2019-05-22T19:23:18.408Z,2.40
2019-05-22T19:25:44.838Z,2.15
2019-05-22T19:28:11.391Z,2.22
2019-05-22T19:30:38.387Z,2.27
2019-05-22T19:33:05.095Z,2.35
2019-05-22T19:35:31.622Z,2.27
2019-05-22T19:37:58.814Z,2.50
2019-05-22T19:40:25.244Z,2.17
2019-05-22T19:42:51.801Z,2.30
2019-05-22T19:45:18.608Z,2.80
2019-05-22T19:47:50.548Z,2.58
2019-05-22T19:50:23.285Z,2.35
2019-05-22T19:52:45.929Z,2.35
2019-05-22T19:55:13.609Z,2.50
2019-05-22T19:57:41.097Z,2.20
2019-05-22T20:00:08.954Z,2.50
2019-05-22T20:02:35.533Z,2.17
2019-05-22T20:05:03.861Z,2.40
2019-05-22T20:07:32.353Z,2.45
2019-05-22T20:09:59.399Z,2.92
2019-05-22T20:12:26.387Z,2.60
2019-05-22T20:14:53.497Z,2.90
2019-05-22T20:17:20.347Z,2.50
2019-05-22T20:19:46.633Z,2.33
2019-05-22T20:22:13.529Z,2.35
2019-05-22T20:24:39.997Z,2.50
2019-05-22T20:27:09.524Z,2.55
2019-05-22T20:29:35.175Z,2.10
2019-05-22T20:32:02.134Z,2.55
2019-05-22T20:34:28.415Z,2.65
2019-05-22T20:36:55.732Z,3.20
2019-05-22T20:39:24.127Z,2.80
2019-05-22T20:41:50.938Z,2.55
2019-05-22T20:44:17.335Z,2.27
2019-05-22T20:46:50.965Z,2.60
2019-05-22T20:49:17.475Z,3.20
2019-05-22T20:51:44.064Z,3.00
2019-05-22T20:54:12.502Z,3.62
2019-05-22T20:56:42.888Z,3.10
2019-05-22T20:59:10.073Z,3.83
2019-05-22T21:01:36.819Z,3.20
2019-05-22T21:04:08.184Z,2.90
2019-05-22T21:06:41.617Z,3.40
2019-05-22T21:09:08.516Z,3.10
2019-05-22T21:11:34.950Z,3.22
2019-05-22T21:14:01.329Z,3.02
2019-05-22T21:16:27.876Z,3.33
2019-05-22T21:18:56.266Z,3.62
2019-05-22T21:21:24.748Z,3.65
2019-05-22T21:23:51.289Z,3.60
2019-05-22T21:26:18.209Z,3.72
2019-05-22T21:28:45.847Z,3.27
2019-05-22T21:31:14.046Z,3.77
2019-05-22T21:33:41.144Z,4.05
2019-05-22T21:36:07.900Z,3.62
2019-05-22T21:38:34.505Z,3.75
2019-05-22T21:41:01.695Z,3.70
2019-05-22T21:43:27.941Z,4.10
2019-05-22T21:45:54.914Z,3.60
2019-05-22T21:48:22.089Z,4.20
2019-05-22T21:50:49.175Z,4.90
2019-05-22T21:53:16.305Z,4.50
2019-05-22T21:55:45.646Z,5.80
2019-05-22T21:58:12.396Z,4.70
2019-05-22T22:00:44.337Z,5.03
2019-05-22T22:03:15.744Z,4.67
2019-05-22T22:05:43.031Z,4.60
2019-05-22T22:08:09.733Z,4.50
2019-05-22T22:10:36.797Z,4.85
2019-05-22T22:13:07.724Z,5.12
2019-05-22T22:15:36.117Z,5.20
2019-05-22T22:18:03.678Z,5.97
2019-05-22T22:20:30.208Z,5.50
2019-05-22T22:22:57.172Z,4.80
2019-05-22T22:25:24.218Z,4.80
2019-05-22T22:27:50.514Z,5.17
2019-05-22T22:30:33.220Z,4.83
2019-05-22T22:33:03.800Z,5.00
2019-05-22T22:35:30.934Z,5.00
2019-05-22T22:37:57.307Z,5.90
2019-05-22T22:40:26.656Z,5.55
2019-05-22T22:42:53.562Z,5.65
2019-05-22T22:45:34.637Z,4.42
2019-05-22T22:48:01.400Z,4.87
2019-05-22T22:50:28.203Z,4.97
2019-05-22T22:52:54.793Z,5.45
2019-05-22T22:55:23.416Z,5.10
2019-05-22T22:57:50.861Z,6.28
2019-05-22T23:00:19.956Z,5.47
2019-05-22T23:02:48.302Z,5.55
2019-05-22T23:05:16.368Z,5.58
2019-05-22T23:07:43.257Z,6.22
2019-05-22T23:10:12.627Z,5.30
2019-05-22T23:12:39.663Z,6.78
2019-05-22T23:15:07.055Z,6.42
2019-05-22T23:17:33.342Z,5.72
2019-05-22T23:19:59.377Z,6.40
2019-05-22T23:22:26.874Z,6.58
2019-05-22T23:24:53.311Z,7.65
2019-05-22T23:27:20.413Z,7.95
2019-05-22T23:29:47.681Z,7.85
2019-05-22T23:32:14.918Z,8.20
2019-05-22T23:34:43.499Z,9.30
2019-05-22T23:37:12.369Z,8.55
2019-05-22T23:39:39.111Z,9.40
2019-05-22T23:42:09.601Z,9.08
2019-05-22T23:44:37.033Z,9.78
2019-05-22T23:47:04.917Z,7.83
2019-05-22T23:49:31.948Z,9.63
2019-05-22T23:51:58.745Z,10.98
2019-05-22T23:54:26.832Z,11.95
2019-05-22T23:56:53.462Z,12.73
2019-05-22T23:59:20.333Z,12.73
